This is the latest recevied weather packets stored in our database for station/object LRCT. If no packets are shown the sender has not sent any weather packets the latest 10 day(s).
| Time | Temp. | Humidity | Pressure | Rain* | Wind** | Luminosity | Snow |
|---|---|---|---|---|---|---|---|
| 1777249136 | 2.22° C | 65% | 1023 hPa | - | - | - | - |
| 1777248252 | 2.22° C | 65% | 1023 hPa | - | - | - | - |
| 1777243734 | 5° C | 53% | 1022 hPa | - | - | - | - |
| 1777242837 | 5° C | 53% | 1022 hPa | - | - | - | - |
| 1777241937 | 5° C | 53% | 1022 hPa | - | - | - | - |
| 1777241036 | 5° C | 53% | 1022 hPa | - | - | - | - |
| 1777240137 | 5° C | 53% | 1022 hPa | - | - | - | - |
| 1777239237 | 6.11° C | 49% | 1022 hPa | - | - | - | - |
| 1777238337 | 6.11° C | 49% | 1022 hPa | - | - | - | - |
| 1777237437 | 6.11° C | 49% | 1022 hPa | - | - | - | - |
| 1777236537 | 6.11° C | 46% | 1021 hPa | - | - | - | - |
| 1777235637 | 6.11° C | 46% | 1021 hPa | - | - | - | - |
| 1777234737 | 6.11° C | 46% | 1021 hPa | - | - | - | - |
| 1777233837 | 6.11° C | 46% | 1021 hPa | - | - | - | - |
| 1777232947 | 7.22° C | 42% | 1020 hPa | - | - | - | - |
| 1777232036 | 7.22° C | 42% | 1020 hPa | - | - | - | - |
| 1777231137 | 7.22° C | 42% | 1020 hPa | - | - | - | - |
| 1777230242 | 7.22° C | 42% | 1020 hPa | - | - | - | - |
| 1777229337 | 8.89° C | 34% | 1019 hPa | - | - | - | - |
| 1777228437 | 8.89° C | 34% | 1019 hPa | - | - | - | - |
| 1777227553 | 8.89° C | 34% | 1019 hPa | - | - | - | - |
| 1777226636 | 8.89° C | 34% | 1019 hPa | - | - | - | - |
| 1777225734 | 12.22° C | 28% | 1018 hPa | - | - | - | - |
| 1777224836 | 12.22° C | 28% | 1018 hPa | - | - | - | - |
| 1777223937 | 12.22° C | 28% | 1018 hPa | - | - | - | - |
* Rain since midnight (hover to see other rain measurements)
** Current wind speed in m/s (hover to see current wind gust speed)